sensor_id;sensor_type;location;lat;lon;timestamp;pressure;altitude;pressure_sealevel;temperature;humidity
29909;BME280;36247;51.952;6.146;2023-05-16T00:00:15;101736.59;;;9.57;100.00
29909;BME280;36247;51.952;6.146;2023-05-16T00:02:40;101728.56;;;9.54;100.00
29909;BME280;36247;51.952;6.146;2023-05-16T00:05:06;101732.38;;;9.37;100.00
29909;BME280;36247;51.952;6.146;2023-05-16T00:07:33;101731.53;;;9.65;100.00
29909;BME280;36247;51.952;6.146;2023-05-16T00:09:59;101729.28;;;9.77;100.00
29909;BME280;36247;51.952;6.146;2023-05-16T00:12:25;101729.53;;;9.58;100.00
29909;BME280;36247;51.952;6.146;2023-05-16T00:14:51;101734.81;;;9.58;100.00
29909;BME280;36247;51.952;6.146;2023-05-16T00:17:18;101742.81;;;9.59;100.00
29909;BME280;36247;51.952;6.146;2023-05-16T00:19:45;101735.72;;;9.58;100.00
29909;BME280;36247;51.952;6.146;2023-05-16T00:22:13;101732.13;;;9.29;100.00
29909;BME280;36247;51.952;6.146;2023-05-16T00:24:40;101735.38;;;9.47;100.00
29909;BME280;36247;51.952;6.146;2023-05-16T00:27:06;101741.22;;;9.37;100.00
29909;BME280;36247;51.952;6.146;2023-05-16T00:29:33;101740.31;;;9.37;100.00
29909;BME280;36247;51.952;6.146;2023-05-16T00:32:00;101734.28;;;9.41;100.00
29909;BME280;36247;51.952;6.146;2023-05-16T00:34:25;101736.31;;;9.22;100.00
29909;BME280;36247;51.952;6.146;2023-05-16T00:36:52;101743.59;;;9.29;100.00
29909;BME280;36247;51.952;6.146;2023-05-16T00:39:18;101745.00;;;9.45;100.00
29909;BME280;36247;51.952;6.146;2023-05-16T00:41:44;101749.50;;;9.48;100.00
29909;BME280;36247;51.952;6.146;2023-05-16T00:44:10;101738.75;;;9.43;100.00
29909;BME280;36247;51.952;6.146;2023-05-16T00:46:36;101743.59;;;9.29;100.00
29909;BME280;36247;51.952;6.146;2023-05-16T00:49:03;101747.19;;;9.31;100.00
29909;BME280;36247;51.952;6.146;2023-05-16T00:51:30;101752.69;;;9.38;100.00
29909;BME280;36247;51.952;6.146;2023-05-16T00:53:57;101744.97;;;9.18;100.00
29909;BME280;36247;51.952;6.146;2023-05-16T00:56:22;101752.91;;;9.18;100.00
29909;BME280;36247;51.952;6.146;2023-05-16T00:58:48;101760.47;;;9.07;100.00
29909;BME280;36247;51.952;6.146;2023-05-16T01:01:15;101756.50;;;9.20;100.00
29909;BME280;36247;51.952;6.146;2023-05-16T01:03:41;101756.25;;;9.12;100.00
29909;BME280;36247;51.952;6.146;2023-05-16T01:06:10;101760.53;;;9.09;100.00
29909;BME280;36247;51.952;6.146;2023-05-16T01:08:37;101764.25;;;9.14;100.00
29909;BME280;36247;51.952;6.146;2023-05-16T01:11:55;101764.97;;;9.10;100.00
29909;BME280;36247;51.952;6.146;2023-05-16T01:15:12;101764.50;;;8.96;100.00
29909;BME280;36247;51.952;6.146;2023-05-16T01:20:32;101765.00;;;8.86;100.00
29909;BME280;36247;51.952;6.146;2023-05-16T01:23:20;101761.94;;;8.73;100.00
29909;BME280;36247;51.952;6.146;2023-05-16T01:26:20;101767.31;;;8.52;100.00
29909;BME280;36247;51.952;6.146;2023-05-16T01:28:48;101768.91;;;8.47;100.00
29909;BME280;36247;51.952;6.146;2023-05-16T01:31:15;101768.63;;;8.41;100.00
29909;BME280;36247;51.952;6.146;2023-05-16T01:33:41;101779.75;;;8.32;100.00
29909;BME280;36247;51.952;6.146;2023-05-16T01:36:12;101766.53;;;8.32;100.00
29909;BME280;36247;51.952;6.146;2023-05-16T01:39:06;101768.56;;;8.15;100.00
29909;BME280;36247;51.952;6.146;2023-05-16T01:44:36;101772.03;;;8.14;100.00
29909;BME280;36247;51.952;6.146;2023-05-16T01:47:11;101766.84;;;8.17;100.00
29909;BME280;36247;51.952;6.146;2023-05-16T01:52:31;101771.41;;;8.21;100.00
29909;BME280;36247;51.952;6.146;2023-05-16T01:55:00;101772.72;;;8.10;100.00
29909;BME280;36247;51.952;6.146;2023-05-16T01:57:28;101780.47;;;8.05;100.00
29909;BME280;36247;51.952;6.146;2023-05-16T01:59:54;101776.03;;;8.04;100.00
29909;BME280;36247;51.952;6.146;2023-05-16T02:02:19;101779.06;;;8.14;100.00
29909;BME280;36247;51.952;6.146;2023-05-16T02:04:45;101774.44;;;8.08;100.00
29909;BME280;36247;51.952;6.146;2023-05-16T02:07:14;101773.31;;;8.03;100.00
29909;BME280;36247;51.952;6.146;2023-05-16T02:09:40;101785.47;;;7.98;100.00
29909;BME280;36247;51.952;6.146;2023-05-16T02:12:06;101782.34;;;7.85;100.00
29909;BME280;36247;51.952;6.146;2023-05-16T02:14:31;101783.28;;;8.10;100.00
29909;BME280;36247;51.952;6.146;2023-05-16T02:16:58;101785.81;;;7.84;100.00
29909;BME280;36247;51.952;6.146;2023-05-16T02:19:24;101788.25;;;7.80;100.00
29909;BME280;36247;51.952;6.146;2023-05-16T02:21:49;101788.69;;;7.90;100.00
29909;BME280;36247;51.952;6.146;2023-05-16T02:24:15;101781.28;;;7.82;100.00
29909;BME280;36247;51.952;6.146;2023-05-16T02:26:41;101777.06;;;8.08;100.00
29909;BME280;36247;51.952;6.146;2023-05-16T02:29:08;101785.81;;;8.07;100.00
29909;BME280;36247;51.952;6.146;2023-05-16T02:31:34;101785.88;;;8.08;100.00
29909;BME280;36247;51.952;6.146;2023-05-16T02:34:00;101790.50;;;8.14;100.00
29909;BME280;36247;51.952;6.146;2023-05-16T02:36:26;101787.16;;;8.18;100.00
29909;BME280;36247;51.952;6.146;2023-05-16T02:38:52;101789.22;;;8.27;100.00
29909;BME280;36247;51.952;6.146;2023-05-16T02:41:20;101788.75;;;8.15;100.00
29909;BME280;36247;51.952;6.146;2023-05-16T02:43:47;101789.72;;;8.17;100.00
29909;BME280;36247;51.952;6.146;2023-05-16T02:46:30;101796.25;;;7.81;100.00
29909;BME280;36247;51.952;6.146;2023-05-16T02:48:56;101801.50;;;7.81;100.00
29909;BME280;36247;51.952;6.146;2023-05-16T02:51:24;101800.94;;;7.88;100.00
29909;BME280;36247;51.952;6.146;2023-05-16T02:53:50;101802.13;;;7.97;100.00
29909;BME280;36247;51.952;6.146;2023-05-16T02:56:17;101806.09;;;8.08;100.00
29909;BME280;36247;51.952;6.146;2023-05-16T02:58:46;101809.31;;;8.01;100.00
29909;BME280;36247;51.952;6.146;2023-05-16T03:01:12;101810.22;;;8.01;100.00
29909;BME280;36247;51.952;6.146;2023-05-16T03:03:37;101821.91;;;7.85;100.00
29909;BME280;36247;51.952;6.146;2023-05-16T03:06:03;101818.06;;;8.00;100.00
29909;BME280;36247;51.952;6.146;2023-05-16T03:08:28;101814.88;;;7.86;100.00
29909;BME280;36247;51.952;6.146;2023-05-16T03:10:55;101820.06;;;7.62;100.00
29909;BME280;36247;51.952;6.146;2023-05-16T03:13:20;101820.19;;;7.65;100.00
29909;BME280;36247;51.952;6.146;2023-05-16T03:15:47;101822.44;;;7.55;100.00
29909;BME280;36247;51.952;6.146;2023-05-16T03:18:12;101826.72;;;7.74;100.00
29909;BME280;36247;51.952;6.146;2023-05-16T03:20:38;101830.72;;;7.44;100.00
29909;BME280;36247;51.952;6.146;2023-05-16T03:23:05;101833.00;;;7.55;100.00
29909;BME280;36247;51.952;6.146;2023-05-16T03:25:35;101833.69;;;7.51;100.00
29909;BME280;36247;51.952;6.146;2023-05-16T03:28:06;101837.41;;;7.56;100.00
29909;BME280;36247;51.952;6.146;2023-05-16T03:30:34;101831.56;;;7.43;100.00
29909;BME280;36247;51.952;6.146;2023-05-16T03:33:00;101840.09;;;7.37;100.00
29909;BME280;36247;51.952;6.146;2023-05-16T03:35:30;101848.53;;;7.49;100.00
29909;BME280;36247;51.952;6.146;2023-05-16T03:37:56;101849.88;;;7.39;100.00
29909;BME280;36247;51.952;6.146;2023-05-16T03:40:22;101852.13;;;7.30;100.00
29909;BME280;36247;51.952;6.146;2023-05-16T03:42:47;101856.03;;;7.19;100.00
29909;BME280;36247;51.952;6.146;2023-05-16T03:45:12;101864.53;;;7.33;100.00
29909;BME280;36247;51.952;6.146;2023-05-16T03:47:39;101859.97;;;7.29;100.00
29909;BME280;36247;51.952;6.146;2023-05-16T03:50:05;101864.00;;;7.20;100.00
29909;BME280;36247;51.952;6.146;2023-05-16T03:52:33;101860.59;;;7.23;100.00
29909;BME280;36247;51.952;6.146;2023-05-16T03:55:00;101868.06;;;7.33;100.00
29909;BME280;36247;51.952;6.146;2023-05-16T03:57:26;101867.22;;;7.34;100.00
29909;BME280;36247;51.952;6.146;2023-05-16T03:59:52;101870.09;;;7.19;100.00
29909;BME280;36247;51.952;6.146;2023-05-16T04:02:18;101869.94;;;7.36;100.00
29909;BME280;36247;51.952;6.146;2023-05-16T04:04:43;101872.84;;;7.42;100.00
29909;BME280;36247;51.952;6.146;2023-05-16T04:07:10;101876.16;;;7.17;100.00
29909;BME280;36247;51.952;6.146;2023-05-16T04:09:35;101873.03;;;7.26;100.00
29909;BME280;36247;51.952;6.146;2023-05-16T04:12:00;101873.97;;;7.28;100.00
29909;BME280;36247;51.952;6.146;2023-05-16T04:14:27;101870.94;;;7.18;100.00
29909;BME280;36247;51.952;6.146;2023-05-16T04:16:53;101870.81;;;7.15;100.00
29909;BME280;36247;51.952;6.146;2023-05-16T04:19:18;101875.06;;;7.33;100.00
29909;BME280;36247;51.952;6.146;2023-05-16T04:21:44;101880.22;;;7.30;100.00
29909;BME280;36247;51.952;6.146;2023-05-16T04:24:09;101893.81;;;7.39;100.00
29909;BME280;36247;51.952;6.146;2023-05-16T04:26:35;101892.72;;;7.55;100.00
29909;BME280;36247;51.952;6.146;2023-05-16T04:29:05;101894.22;;;7.48;100.00
29909;BME280;36247;51.952;6.146;2023-05-16T04:31:30;101891.91;;;7.56;100.00
29909;BME280;36247;51.952;6.146;2023-05-16T04:33:56;101897.16;;;7.35;100.00
29909;BME280;36247;51.952;6.146;2023-05-16T04:36:22;101896.03;;;7.30;100.00
29909;BME280;36247;51.952;6.146;2023-05-16T04:38:48;101893.47;;;7.52;100.00
29909;BME280;36247;51.952;6.146;2023-05-16T04:41:13;101896.59;;;7.63;100.00
29909;BME280;36247;51.952;6.146;2023-05-16T04:43:39;101896.22;;;7.54;100.00
29909;BME280;36247;51.952;6.146;2023-05-16T04:46:06;101903.28;;;7.55;100.00
29909;BME280;36247;51.952;6.146;2023-05-16T04:48:33;101903.53;;;7.61;100.00
29909;BME280;36247;51.952;6.146;2023-05-16T04:50:58;101899.81;;;7.56;100.00
29909;BME280;36247;51.952;6.146;2023-05-16T04:53:24;101905.84;;;7.74;100.00
29909;BME280;36247;51.952;6.146;2023-05-16T04:55:50;101908.75;;;7.81;100.00
29909;BME280;36247;51.952;6.146;2023-05-16T04:58:15;101904.06;;;7.94;100.00
29909;BME280;36247;51.952;6.146;2023-05-16T05:00:41;101910.50;;;8.01;100.00
29909;BME280;36247;51.952;6.146;2023-05-16T05:03:06;101918.59;;;8.06;100.00
29909;BME280;36247;51.952;6.146;2023-05-16T05:05:33;101911.94;;;8.37;100.00
29909;BME280;36247;51.952;6.146;2023-05-16T05:07:58;101912.63;;;8.54;100.00
29909;BME280;36247;51.952;6.146;2023-05-16T05:10:26;101910.06;;;8.78;100.00
29909;BME280;36247;51.952;6.146;2023-05-16T05:12:52;101912.13;;;8.87;100.00
29909;BME280;36247;51.952;6.146;2023-05-16T05:15:18;101917.00;;;8.76;100.00
29909;BME280;36247;51.952;6.146;2023-05-16T05:17:43;101917.31;;;8.83;100.00
29909;BME280;36247;51.952;6.146;2023-05-16T05:20:10;101913.31;;;8.71;100.00
29909;BME280;36247;51.952;6.146;2023-05-16T05:22:36;101916.34;;;8.81;100.00
29909;BME280;36247;51.952;6.146;2023-05-16T05:25:01;101911.09;;;9.06;100.00
29909;BME280;36247;51.952;6.146;2023-05-16T05:27:31;101919.06;;;9.07;100.00
29909;BME280;36247;51.952;6.146;2023-05-16T05:29:56;101917.91;;;8.99;100.00
29909;BME280;36247;51.952;6.146;2023-05-16T05:32:22;101920.00;;;8.85;100.00
29909;BME280;36247;51.952;6.146;2023-05-16T05:34:47;101924.53;;;9.12;100.00
29909;BME280;36247;51.952;6.146;2023-05-16T05:37:13;101922.63;;;9.08;100.00
29909;BME280;36247;51.952;6.146;2023-05-16T05:39:39;101929.53;;;9.04;100.00
29909;BME280;36247;51.952;6.146;2023-05-16T05:42:05;101939.16;;;9.26;100.00
29909;BME280;36247;51.952;6.146;2023-05-16T05:44:31;101937.13;;;9.43;100.00
29909;BME280;36247;51.952;6.146;2023-05-16T05:46:58;101938.69;;;9.88;100.00
29909;BME280;36247;51.952;6.146;2023-05-16T05:49:24;101931.38;;;9.79;100.00
29909;BME280;36247;51.952;6.146;2023-05-16T05:51:50;101933.41;;;9.88;100.00
29909;BME280;36247;51.952;6.146;2023-05-16T05:54:17;101938.63;;;9.86;100.00
29909;BME280;36247;51.952;6.146;2023-05-16T05:56:43;101928.41;;;10.23;100.00
29909;BME280;36247;51.952;6.146;2023-05-16T05:59:09;101940.19;;;9.80;100.00
29909;BME280;36247;51.952;6.146;2023-05-16T06:01:35;101937.47;;;10.04;100.00
29909;BME280;36247;51.952;6.146;2023-05-16T06:04:00;101939.63;;;10.16;100.00
29909;BME280;36247;51.952;6.146;2023-05-16T06:06:26;101937.00;;;10.16;100.00
29909;BME280;36247;51.952;6.146;2023-05-16T06:08:52;101931.53;;;10.37;100.00
29909;BME280;36247;51.952;6.146;2023-05-16T06:11:18;101935.66;;;10.85;100.00
29909;BME280;36247;51.952;6.146;2023-05-16T06:13:43;101939.09;;;11.11;100.00
29909;BME280;36247;51.952;6.146;2023-05-16T06:16:09;101933.63;;;11.05;100.00
29909;BME280;36247;51.952;6.146;2023-05-16T06:18:35;101944.28;;;11.38;100.00
29909;BME280;36247;51.952;6.146;2023-05-16T06:21:00;101949.81;;;11.46;100.00
29909;BME280;36247;51.952;6.146;2023-05-16T06:23:26;101952.41;;;11.44;100.00
29909;BME280;36247;51.952;6.146;2023-05-16T06:25:51;101950.19;;;10.98;100.00
29909;BME280;36247;51.952;6.146;2023-05-16T06:28:18;101957.56;;;10.79;100.00
29909;BME280;36247;51.952;6.146;2023-05-16T06:30:43;101953.47;;;11.19;100.00
29909;BME280;36247;51.952;6.146;2023-05-16T06:33:09;101954.72;;;10.73;100.00
29909;BME280;36247;51.952;6.146;2023-05-16T06:35:34;101956.16;;;10.90;100.00
29909;BME280;36247;51.952;6.146;2023-05-16T06:38:00;101955.06;;;10.84;100.00
29909;BME280;36247;51.952;6.146;2023-05-16T06:40:25;101949.47;;;11.03;100.00
29909;BME280;36247;51.952;6.146;2023-05-16T06:42:51;101955.34;;;10.93;100.00
29909;BME280;36247;51.952;6.146;2023-05-16T06:45:16;101965.28;;;10.17;100.00
29909;BME280;36247;51.952;6.146;2023-05-16T06:47:42;101955.16;;;10.58;100.00
29909;BME280;36247;51.952;6.146;2023-05-16T06:50:07;101969.25;;;10.31;100.00
29909;BME280;36247;51.952;6.146;2023-05-16T06:52:35;101969.06;;;10.25;100.00
29909;BME280;36247;51.952;6.146;2023-05-16T06:55:00;101963.31;;;10.11;100.00
29909;BME280;36247;51.952;6.146;2023-05-16T06:57:26;101960.09;;;10.20;100.00
29909;BME280;36247;51.952;6.146;2023-05-16T06:59:51;101961.50;;;10.36;100.00
29909;BME280;36247;51.952;6.146;2023-05-16T07:02:18;101964.72;;;10.53;100.00
29909;BME280;36247;51.952;6.146;2023-05-16T07:04:43;101957.50;;;10.49;100.00
29909;BME280;36247;51.952;6.146;2023-05-16T07:07:09;101972.44;;;10.21;100.00
29909;BME280;36247;51.952;6.146;2023-05-16T07:09:35;101965.94;;;10.64;100.00
29909;BME280;36247;51.952;6.146;2023-05-16T07:12:00;101970.50;;;10.68;100.00
29909;BME280;36247;51.952;6.146;2023-05-16T07:14:26;101974.28;;;10.49;100.00
29909;BME280;36247;51.952;6.146;2023-05-16T07:16:51;101972.47;;;10.47;100.00
29909;BME280;36247;51.952;6.146;2023-05-16T07:19:17;101978.66;;;10.21;100.00
29909;BME280;36247;51.952;6.146;2023-05-16T07:21:43;101974.06;;;10.41;100.00
29909;BME280;36247;51.952;6.146;2023-05-16T07:24:09;101975.81;;;10.41;100.00
29909;BME280;36247;51.952;6.146;2023-05-16T07:26:35;101975.75;;;10.96;100.00
29909;BME280;36247;51.952;6.146;2023-05-16T07:29:00;101977.97;;;10.82;100.00
29909;BME280;36247;51.952;6.146;2023-05-16T07:31:31;101980.28;;;11.00;100.00
29909;BME280;36247;51.952;6.146;2023-05-16T07:33:56;101985.25;;;11.18;100.00
29909;BME280;36247;51.952;6.146;2023-05-16T07:36:22;101982.00;;;11.28;100.00
29909;BME280;36247;51.952;6.146;2023-05-16T07:38:48;101973.16;;;11.27;100.00
29909;BME280;36247;51.952;6.146;2023-05-16T07:41:13;101972.44;;;11.33;100.00
29909;BME280;36247;51.952;6.146;2023-05-16T07:43:39;101973.06;;;11.88;100.00
29909;BME280;36247;51.952;6.146;2023-05-16T07:46:06;101970.16;;;12.11;100.00
29909;BME280;36247;51.952;6.146;2023-05-16T07:48:31;101972.59;;;12.03;100.00
29909;BME280;36247;51.952;6.146;2023-05-16T07:50:56;101982.19;;;11.64;100.00
29909;BME280;36247;51.952;6.146;2023-05-16T07:53:22;101973.00;;;11.53;100.00
29909;BME280;36247;51.952;6.146;2023-05-16T07:55:48;101974.22;;;11.34;100.00
29909;BME280;36247;51.952;6.146;2023-05-16T07:58:14;101980.16;;;11.56;100.00
29909;BME280;36247;51.952;6.146;2023-05-16T08:00:40;101974.09;;;11.60;100.00
29909;BME280;36247;51.952;6.146;2023-05-16T08:03:05;101969.34;;;11.48;100.00
29909;BME280;36247;51.952;6.146;2023-05-16T08:05:31;101969.47;;;11.53;100.00
29909;BME280;36247;51.952;6.146;2023-05-16T08:07:58;101973.53;;;12.40;100.00
29909;BME280;36247;51.952;6.146;2023-05-16T08:10:24;101975.13;;;12.70;100.00
29909;BME280;36247;51.952;6.146;2023-05-16T08:12:49;101974.72;;;12.16;100.00
29909;BME280;36247;51.952;6.146;2023-05-16T08:15:15;101970.81;;;12.02;100.00
29909;BME280;36247;51.952;6.146;2023-05-16T08:17:41;101980.06;;;11.85;100.00
29909;BME280;36247;51.952;6.146;2023-05-16T08:20:07;101978.63;;;11.96;100.00
29909;BME280;36247;51.952;6.146;2023-05-16T08:22:33;101968.84;;;11.95;100.00
29909;BME280;36247;51.952;6.146;2023-05-16T08:24:59;101973.16;;;11.91;100.00
29909;BME280;36247;51.952;6.146;2023-05-16T08:27:28;101968.84;;;11.95;100.00
29909;BME280;36247;51.952;6.146;2023-05-16T08:29:54;101967.44;;;12.82;100.00
29909;BME280;36247;51.952;6.146;2023-05-16T08:32:20;101963.25;;;13.81;100.00
29909;BME280;36247;51.952;6.146;2023-05-16T08:34:46;101971.63;;;13.53;100.00
29909;BME280;36247;51.952;6.146;2023-05-16T08:37:11;101973.84;;;12.52;100.00
29909;BME280;36247;51.952;6.146;2023-05-16T08:39:37;101976.06;;;12.35;100.00
29909;BME280;36247;51.952;6.146;2023-05-16T08:42:03;101983.72;;;12.22;100.00
29909;BME280;36247;51.952;6.146;2023-05-16T08:44:31;101983.16;;;11.68;100.00
29909;BME280;36247;51.952;6.146;2023-05-16T08:47:03;101986.75;;;12.02;100.00
29909;BME280;36247;51.952;6.146;2023-05-16T08:49:33;101976.56;;;12.56;100.00
29909;BME280;36247;51.952;6.146;2023-05-16T08:52:00;101983.06;;;12.30;100.00
29909;BME280;36247;51.952;6.146;2023-05-16T08:54:26;101976.72;;;13.41;100.00
29909;BME280;36247;51.952;6.146;2023-05-16T08:56:53;101972.78;;;13.68;100.00
29909;BME280;36247;51.952;6.146;2023-05-16T08:59:19;101975.09;;;14.50;100.00
29909;BME280;36247;51.952;6.146;2023-05-16T09:01:45;101969.59;;;14.38;100.00
29909;BME280;36247;51.952;6.146;2023-05-16T09:04:11;101966.09;;;15.02;100.00
29909;BME280;36247;51.952;6.146;2023-05-16T09:06:37;101966.91;;;14.94;100.00
29909;BME280;36247;51.952;6.146;2023-05-16T09:09:05;101958.88;;;15.65;100.00
29909;BME280;36247;51.952;6.146;2023-05-16T09:11:33;101971.13;;;13.74;100.00
29909;BME280;36247;51.952;6.146;2023-05-16T09:14:00;101963.53;;;14.48;100.00
29909;BME280;36247;51.952;6.146;2023-05-16T09:16:25;101961.25;;;15.42;100.00
29909;BME280;36247;51.952;6.146;2023-05-16T09:18:56;101952.59;;;15.64;100.00
29909;BME280;36247;51.952;6.146;2023-05-16T09:21:30;101954.75;;;15.95;100.00
29909;BME280;36247;51.952;6.146;2023-05-16T09:24:03;101948.91;;;16.44;100.00
29909;BME280;36247;51.952;6.146;2023-05-16T09:26:38;101960.81;;;15.78;93.89
29909;BME280;36247;51.952;6.146;2023-05-16T09:29:10;101963.31;;;16.64;100.00
29909;BME280;36247;51.952;6.146;2023-05-16T09:31:36;101970.06;;;15.33;98.74
29909;BME280;36247;51.952;6.146;2023-05-16T09:34:06;101976.47;;;14.25;100.00
29909;BME280;36247;51.952;6.146;2023-05-16T09:36:33;101987.84;;;12.83;100.00
29909;BME280;36247;51.952;6.146;2023-05-16T09:38:59;102009.53;;;12.27;100.00
29909;BME280;36247;51.952;6.146;2023-05-16T09:41:25;102008.13;;;12.07;100.00
29909;BME280;36247;51.952;6.146;2023-05-16T09:43:51;102017.88;;;11.76;100.00
29909;BME280;36247;51.952;6.146;2023-05-16T09:46:16;102009.19;;;11.81;100.00
29909;BME280;36247;51.952;6.146;2023-05-16T09:48:44;102013.06;;;11.62;100.00
29909;BME280;36247;51.952;6.146;2023-05-16T09:51:11;102014.31;;;11.75;100.00
29909;BME280;36247;51.952;6.146;2023-05-16T09:53:37;102009.69;;;11.68;100.00
29909;BME280;36247;51.952;6.146;2023-05-16T09:56:09;102011.09;;;12.19;100.00
29909;BME280;36247;51.952;6.146;2023-05-16T09:58:36;102004.38;;;12.70;100.00
29909;BME280;36247;51.952;6.146;2023-05-16T10:01:06;101993.78;;;14.52;100.00
29909;BME280;36247;51.952;6.146;2023-05-16T10:03:37;101987.66;;;15.17;100.00
29909;BME280;36247;51.952;6.146;2023-05-16T10:06:03;101982.28;;;15.88;100.00
29909;BME280;36247;51.952;6.146;2023-05-16T10:08:35;101984.84;;;16.84;100.00
29909;BME280;36247;51.952;6.146;2023-05-16T10:11:05;101970.16;;;17.96;99.66
29909;BME280;36247;51.952;6.146;2023-05-16T10:13:35;101996.47;;;15.83;100.00
29909;BME280;36247;51.952;6.146;2023-05-16T10:16:06;102003.19;;;14.29;100.00
29909;BME280;36247;51.952;6.146;2023-05-16T10:18:35;102010.28;;;12.95;100.00
29909;BME280;36247;51.952;6.146;2023-05-16T10:21:08;102008.34;;;13.27;100.00
29909;BME280;36247;51.952;6.146;2023-05-16T10:23:35;102004.19;;;13.40;100.00
29909;BME280;36247;51.952;6.146;2023-05-16T10:26:03;101994.16;;;13.30;100.00
29909;BME280;36247;51.952;6.146;2023-05-16T10:28:30;101994.09;;;13.68;100.00
29909;BME280;36247;51.952;6.146;2023-05-16T10:30:56;101995.25;;;13.82;100.00
29909;BME280;36247;51.952;6.146;2023-05-16T10:33:23;101989.38;;;15.12;100.00
29909;BME280;36247;51.952;6.146;2023-05-16T10:35:49;101991.44;;;14.70;100.00
29909;BME280;36247;51.952;6.146;2023-05-16T10:38:17;101989.41;;;15.85;100.00
29909;BME280;36247;51.952;6.146;2023-05-16T10:40:43;101973.31;;;16.87;97.65
29909;BME280;36247;51.952;6.146;2023-05-16T10:43:09;101968.84;;;16.87;86.45
29909;BME280;36247;51.952;6.146;2023-05-16T10:45:41;101971.69;;;17.20;100.00
29909;BME280;36247;51.952;6.146;2023-05-16T10:48:07;101967.88;;;16.81;87.66
29909;BME280;36247;51.952;6.146;2023-05-16T10:50:41;101956.75;;;18.45;81.52
29909;BME280;36247;51.952;6.146;2023-05-16T11:01:20;101955.31;;;16.69;92.89
29909;BME280;36247;51.952;6.146;2023-05-16T11:04:00;101944.50;;;16.52;90.70
29909;BME280;36247;51.952;6.146;2023-05-16T11:11:41;101952.88;;;17.07;78.32
29909;BME280;36247;51.952;6.146;2023-05-16T11:14:07;101942.03;;;16.86;80.47
29909;BME280;36247;51.952;6.146;2023-05-16T11:16:35;101954.00;;;16.10;93.16
29909;BME280;36247;51.952;6.146;2023-05-16T11:19:07;101949.06;;;16.65;89.51
29909;BME280;36247;51.952;6.146;2023-05-16T11:22:05;101941.47;;;18.89;79.71
29909;BME280;36247;51.952;6.146;2023-05-16T11:24:36;101939.66;;;18.82;70.57
29909;BME280;36247;51.952;6.146;2023-05-16T11:27:05;101941.56;;;18.04;72.15
29909;BME280;36247;51.952;6.146;2023-05-16T11:29:34;101954.41;;;16.68;71.40
29909;BME280;36247;51.952;6.146;2023-05-16T11:32:02;101962.03;;;16.11;74.19
29909;BME280;36247;51.952;6.146;2023-05-16T11:34:30;101962.66;;;15.12;76.29
29909;BME280;36247;51.952;6.146;2023-05-16T11:36:56;101956.44;;;15.11;77.89
29909;BME280;36247;51.952;6.146;2023-05-16T11:39:22;101957.03;;;16.59;72.18
29909;BME280;36247;51.952;6.146;2023-05-16T11:41:52;101945.94;;;18.93;68.14
29909;BME280;36247;51.952;6.146;2023-05-16T11:44:18;101953.13;;;18.74;68.02
29909;BME280;36247;51.952;6.146;2023-05-16T11:46:43;101964.69;;;17.59;70.50
29909;BME280;36247;51.952;6.146;2023-05-16T11:49:10;101953.59;;;16.82;69.38
29909;BME280;36247;51.952;6.146;2023-05-16T11:51:40;101965.91;;;16.55;72.50
29909;BME280;36247;51.952;6.146;2023-05-16T11:54:09;101967.31;;;16.03;67.24
29909;BME280;36247;51.952;6.146;2023-05-16T11:56:38;101964.09;;;15.54;71.77
29909;BME280;36247;51.952;6.146;2023-05-16T11:59:07;101955.75;;;18.93;68.81
29909;BME280;36247;51.952;6.146;2023-05-16T12:01:36;101962.81;;;19.28;59.93
29909;BME280;36247;51.952;6.146;2023-05-16T12:04:13;101961.19;;;18.46;63.82
29909;BME280;36247;51.952;6.146;2023-05-16T12:06:40;101963.88;;;18.48;59.84
29909;BME280;36247;51.952;6.146;2023-05-16T12:09:12;101971.53;;;16.92;54.92
29909;BME280;36247;51.952;6.146;2023-05-16T12:11:40;101970.78;;;17.22;58.22
29909;BME280;36247;51.952;6.146;2023-05-16T12:14:11;101981.97;;;15.63;62.88
29909;BME280;36247;51.952;6.146;2023-05-16T12:16:38;101989.38;;;15.82;65.76
29909;BME280;36247;51.952;6.146;2023-05-16T12:19:11;101980.56;;;15.94;64.74
29909;BME280;36247;51.952;6.146;2023-05-16T12:21:37;101977.63;;;15.73;62.79
29909;BME280;36247;51.952;6.146;2023-05-16T12:24:03;101982.06;;;15.67;65.68
29909;BME280;36247;51.952;6.146;2023-05-16T12:26:31;101984.16;;;15.96;69.57
29909;BME280;36247;51.952;6.146;2023-05-16T12:29:00;101979.97;;;16.26;66.76
29909;BME280;36247;51.952;6.146;2023-05-16T12:31:37;101974.63;;;18.54;62.34
29909;BME280;36247;51.952;6.146;2023-05-16T12:34:13;101978.91;;;17.33;60.20
29909;BME280;36247;51.952;6.146;2023-05-16T12:36:39;101964.75;;;18.70;53.95
29909;BME280;36247;51.952;6.146;2023-05-16T12:39:05;101966.09;;;19.88;54.90
29909;BME280;36247;51.952;6.146;2023-05-16T12:41:31;101953.16;;;20.35;55.96
29909;BME280;36247;51.952;6.146;2023-05-16T12:44:10;101976.38;;;18.61;57.24
29909;BME280;36247;51.952;6.146;2023-05-16T12:46:40;101980.66;;;17.34;58.65
29909;BME280;36247;51.952;6.146;2023-05-16T12:49:07;101996.91;;;16.28;66.43
29909;BME280;36247;51.952;6.146;2023-05-16T12:51:34;101990.34;;;15.92;63.77
29909;BME280;36247;51.952;6.146;2023-05-16T12:54:10;101982.66;;;16.29;61.55
29909;BME280;36247;51.952;6.146;2023-05-16T12:56:40;101989.88;;;16.36;58.88
29909;BME280;36247;51.952;6.146;2023-05-16T12:59:06;101990.78;;;16.43;57.24
29909;BME280;36247;51.952;6.146;2023-05-16T13:01:34;101995.81;;;16.04;62.05
29909;BME280;36247;51.952;6.146;2023-05-16T13:04:01;101993.38;;;16.29;65.42
29909;BME280;36247;51.952;6.146;2023-05-16T13:06:28;102002.16;;;16.14;66.64
29909;BME280;36247;51.952;6.146;2023-05-16T13:08:54;102007.06;;;16.69;63.96